Time;durP1;ratioP1;P1;durP2;ratioP2;P2;SDS_P1;SDS_P2;PMS_P1;PMS_P2;Temp;Humidity;BMP_temperature;BMP_pressure;BME280_temperature;BME280_humidity;BME280_pressure;Samples;Min_cycle;Max_cycle;Signal;HPM_P1;HPM_P2
2023/12/07 00:01:08;;;;;;;98.07;16.08;;;7.60;99.90;;;;;;5003905;28;20034;-51
2023/12/07 00:03:34;;;;;;;76.72;15.73;;;7.60;99.90;;;;;;5004000;28;20069;-51
2023/12/07 00:05:59;;;;;;;78.20;16.20;;;7.60;99.90;;;;;;5004877;28;20060;-50
2023/12/07 00:08:25;;;;;;;91.25;15.88;;;7.50;99.90;;;;;;5005085;28;20039;-51
2023/12/07 00:10:50;;;;;;;82.88;16.20;;;7.60;99.90;;;;;;5004897;28;20383;-51
2023/12/07 00:13:16;;;;;;;92.75;15.73;;;7.50;99.90;;;;;;5004785;28;20050;-51
2023/12/07 00:15:42;;;;;;;76.28;16.58;;;7.60;99.90;;;;;;5003780;28;20058;-51
2023/12/07 00:18:08;;;;;;;68.88;15.10;;;7.60;99.90;;;;;;5003810;28;20068;-51
2023/12/07 00:20:33;;;;;;;65.82;14.32;;;7.50;99.90;;;;;;5003512;28;20018;-51
2023/12/07 00:22:59;;;;;;;89.32;15.80;;;7.50;99.90;;;;;;5005075;28;20029;-50
2023/12/07 00:25:24;;;;;;;88.03;15.57;;;7.50;99.90;;;;;;5003343;28;20084;-51
2023/12/07 00:27:50;;;;;;;77.78;14.35;;;7.50;99.90;;;;;;5004524;28;20053;-51
2023/12/07 00:30:15;;;;;;;65.18;13.98;;;7.50;99.90;;;;;;5003064;28;20018;-51
2023/12/07 00:32:44;;;;;;;81.65;15.68;;;7.50;99.90;;;;;;5004647;28;20102;-51
2023/12/07 00:35:10;;;;;;;78.95;14.70;;;7.50;99.90;;;;;;5003397;28;20057;-51
2023/12/07 00:37:36;;;;;;;52.92;14.65;;;7.50;99.90;;;;;;5004317;28;20027;-51
2023/12/07 00:40:01;;;;;;;63.20;14.93;;;7.50;99.90;;;;;;5003290;28;20109;-51
2023/12/07 00:42:27;;;;;;;55.85;14.70;;;7.50;99.90;;;;;;5003228;28;20026;-51
2023/12/07 00:44:53;;;;;;;53.10;12.80;;;7.50;99.90;;;;;;5004494;28;20030;-51
2023/12/07 00:47:19;;;;;;;68.03;15.40;;;7.50;99.90;;;;;;5004389;28;20038;-50
2023/12/07 00:49:44;;;;;;;56.10;13.65;;;7.50;99.90;;;;;;5004390;28;20050;-51
2023/12/07 00:52:10;;;;;;;55.38;12.55;;;7.50;99.90;;;;;;5003002;28;20057;-51
2023/12/07 00:54:35;;;;;;;58.45;14.95;;;7.50;99.90;;;;;;5003119;28;20026;-51
2023/12/07 00:57:01;;;;;;;59.67;13.48;;;7.50;99.90;;;;;;4986670;28;20129;-50
2023/12/07 00:59:27;;;;;;;53.03;14.30;;;7.50;99.90;;;;;;5003309;28;20038;-51
2023/12/07 01:01:52;;;;;;;63.03;14.20;;;7.50;99.90;;;;;;5002730;28;20030;-51
2023/12/07 01:04:18;;;;;;;54.03;12.70;;;7.40;99.90;;;;;;4986665;28;20051;-51
2023/12/07 01:06:43;;;;;;;63.80;13.63;;;7.40;99.90;;;;;;5002914;28;20030;-51
2023/12/07 01:09:13;;;;;;;50.58;13.20;;;7.40;99.90;;;;;;5003006;28;20034;-51
2023/12/07 01:11:39;;;;;;;51.78;12.18;;;7.40;99.90;;;;;;5002890;28;20079;-50
2023/12/07 01:14:05;;;;;;;54.05;13.85;;;7.40;99.90;;;;;;5004055;28;20022;-51
2023/12/07 01:16:31;;;;;;;51.22;12.18;;;7.40;99.90;;;;;;5002712;28;20042;-51
2023/12/07 01:18:57;;;;;;;51.28;13.13;;;7.40;99.90;;;;;;5004099;28;20175;-50
2023/12/07 01:21:23;;;;;;;44.58;12.88;;;7.40;99.90;;;;;;5002743;28;20038;-51
2023/12/07 01:23:49;;;;;;;56.22;13.20;;;7.40;99.90;;;;;;5002853;28;20374;-51
2023/12/07 01:26:14;;;;;;;55.58;12.60;;;7.30;99.90;;;;;;5002538;28;20084;-51
2023/12/07 01:28:40;;;;;;;65.53;13.18;;;7.30;99.90;;;;;;5002675;28;20030;-51
2023/12/07 01:31:05;;;;;;;52.25;11.85;;;7.30;99.90;;;;;;5003757;28;20030;-51
2023/12/07 01:33:31;;;;;;;52.30;13.13;;;7.30;99.90;;;;;;5003872;28;20026;-51
2023/12/07 01:35:57;;;;;;;43.60;11.27;;;7.30;99.90;;;;;;5002548;28;20034;-51
2023/12/07 01:38:22;;;;;;;42.75;12.10;;;7.30;99.90;;;;;;5002569;28;20050;-51
2023/12/07 01:40:48;;;;;;;56.13;12.57;;;7.30;99.90;;;;;;5003665;28;20034;-51
2023/12/07 01:43:14;;;;;;;54.63;13.07;;;7.30;99.90;;;;;;5002466;28;20029;-51
2023/12/07 01:45:39;;;;;;;41.20;11.45;;;7.30;99.90;;;;;;5002403;28;20042;-51
2023/12/07 01:48:06;;;;;;;65.55;13.77;;;7.30;99.90;;;;;;4985949;28;20023;-51
2023/12/07 01:50:31;;;;;;;59.22;11.55;;;7.30;99.90;;;;;;5002205;28;20030;-51
2023/12/07 01:53:01;;;;;;;48.97;13.07;;;7.30;99.90;;;;;;5002320;28;20026;-51
2023/12/07 01:55:27;;;;;;;46.03;12.20;;;7.30;99.90;;;;;;5002015;28;20082;-51
2023/12/07 01:57:52;;;;;;;41.92;12.18;;;7.20;99.90;;;;;;5002234;28;20027;-51
2023/12/07 02:00:18;;;;;;;43.70;11.52;;;7.30;99.90;;;;;;5002377;28;20019;-51
2023/12/07 02:02:45;;;;;;;32.55;10.55;;;7.20;99.90;;;;;;5002389;28;20018;-51
2023/12/07 02:05:10;;;;;;;40.95;11.68;;;7.20;99.90;;;;;;5002450;28;20032;-51
2023/12/07 02:07:36;;;;;;;37.80;11.93;;;7.20;99.90;;;;;;5002139;28;20080;-51
2023/12/07 02:10:03;;;;;;;42.15;12.95;;;7.20;99.90;;;;;;5002953;28;20040;-51
2023/12/07 02:12:31;;;;;;;47.22;11.43;;;7.20;99.90;;;;;;5002351;28;20110;-51
2023/12/07 02:14:56;;;;;;;39.13;10.52;;;7.20;99.90;;;;;;4989629;28;20030;-51
2023/12/07 02:17:31;;;;;;;38.55;10.90;;;7.20;99.90;;;;;;5005373;28;20035;-51
2023/12/07 02:20:21;;;;;;;30.50;10.52;;;7.20;99.90;;;;;;5005352;28;20022;-51
2023/12/07 02:22:50;;;;;;;40.92;11.10;;;7.20;99.90;;;;;;5026835;28;20422;-51
2023/12/07 02:25:17;;;;;;;30.75;10.60;;;7.10;99.90;;;;;;5005098;28;20385;-51
2023/12/07 02:27:46;;;;;;;39.15;11.40;;;7.10;99.90;;;;;;4989269;28;20047;-51
2023/12/07 02:30:12;;;;;;;38.78;11.15;;;7.10;99.90;;;;;;4989406;28;20022;-51
2023/12/07 02:32:42;;;;;;;37.67;10.50;;;7.10;99.90;;;;;;5006506;28;20547;-50
2023/12/07 02:35:08;;;;;;;36.83;10.82;;;7.10;99.90;;;;;;5005073;28;20470;-49
2023/12/07 02:37:52;;;;;;;33.60;10.38;;;7.10;99.90;;;;;;5006466;28;20050;-51
2023/12/07 02:40:20;;;;;;;30.13;10.25;;;7.10;99.90;;;;;;5005169;28;20026;-51
2023/12/07 02:42:46;;;;;;;34.05;9.90;;;7.10;99.90;;;;;;5005180;28;20022;-50
2023/12/07 02:45:12;;;;;;;35.20;9.10;;;7.10;99.90;;;;;;5004969;28;20028;-51
2023/12/07 02:47:38;;;;;;;39.75;11.23;;;7.10;99.90;;;;;;4988471;28;20042;-51
2023/12/07 02:50:05;;;;;;;26.30;8.90;;;7.10;99.90;;;;;;5005037;28;20518;-51
2023/12/07 02:52:31;;;;;;;38.15;10.98;;;7.00;99.90;;;;;;5004917;28;20041;-51
2023/12/07 02:54:56;;;;;;;32.00;11.05;;;7.00;99.90;;;;;;5004830;28;20026;-51
2023/12/07 02:57:22;;;;;;;27.02;9.20;;;7.00;99.90;;;;;;5006032;28;20033;-50
2023/12/07 02:59:48;;;;;;;25.02;9.35;;;7.00;99.90;;;;;;4988745;28;20117;-51
2023/12/07 03:02:13;;;;;;;25.80;8.98;;;7.00;99.90;;;;;;4988545;28;20034;-51
2023/12/07 03:04:39;;;;;;;39.50;9.23;;;7.00;99.90;;;;;;5005779;28;20055;-51
2023/12/07 03:07:04;;;;;;;31.08;10.57;;;7.00;99.90;;;;;;5004749;28;20046;-51
2023/12/07 03:09:30;;;;;;;26.60;9.40;;;6.90;99.90;;;;;;4988479;28;20049;-51
2023/12/07 03:11:55;;;;;;;26.63;10.25;;;7.00;99.90;;;;;;5004811;28;20031;-60
2023/12/07 03:14:21;;;;;;;23.42;9.15;;;6.90;99.90;;;;;;4988315;28;20022;-59
2023/12/07 03:16:47;;;;;;;31.20;9.95;;;6.90;99.90;;;;;;4988371;28;20037;-59
2023/12/07 03:19:12;;;;;;;32.67;10.15;;;6.90;99.90;;;;;;5004595;28;20030;-59
2023/12/07 03:21:42;;;;;;;29.45;10.23;;;6.90;99.90;;;;;;5004873;28;20065;-59
2023/12/07 03:24:08;;;;;;;31.75;11.73;;;6.90;99.90;;;;;;5005451;28;20031;-59
2023/12/07 03:26:34;;;;;;;25.55;9.55;;;6.90;99.90;;;;;;5004498;28;20542;-60
2023/12/07 03:29:00;;;;;;;26.98;10.00;;;6.90;99.90;;;;;;5005636;28;20097;-60
2023/12/07 03:31:25;;;;;;;24.88;10.05;;;6.90;99.90;;;;;;5004305;28;20045;-60
2023/12/07 03:33:51;;;;;;;23.70;9.65;;;6.90;99.90;;;;;;5004401;28;20425;-60
2023/12/07 03:36:16;;;;;;;38.78;10.48;;;6.80;99.90;;;;;;5005334;28;20147;-59
2023/12/07 03:38:42;;;;;;;29.45;11.30;;;6.80;99.90;;;;;;5005514;28;20060;-60
2023/12/07 03:41:08;;;;;;;27.48;10.65;;;6.80;99.90;;;;;;5004242;28;20083;-60
2023/12/07 03:43:33;;;;;;;33.65;10.32;;;6.80;99.90;;;;;;5005340;28;20022;-60
2023/12/07 03:45:59;;;;;;;30.30;9.25;;;6.80;99.90;;;;;;5003861;28;20039;-59
2023/12/07 03:48:25;;;;;;;34.53;9.88;;;6.80;99.90;;;;;;5004208;28;20485;-59
2023/12/07 03:50:50;;;;;;;28.13;10.35;;;6.80;99.90;;;;;;5004139;28;20042;-59
2023/12/07 03:53:16;;;;;;;23.80;10.20;;;6.80;99.90;;;;;;5005090;28;20069;-60
2023/12/07 03:55:41;;;;;;;21.55;9.25;;;6.80;99.90;;;;;;5005821;28;20035;-60
2023/12/07 03:58:07;;;;;;;24.83;10.38;;;6.80;99.90;;;;;;5004211;28;20034;-59
2023/12/07 04:00:32;;;;;;;25.90;9.73;;;6.80;99.90;;;;;;5003844;28;20068;-60
2023/12/07 04:02:58;;;;;;;19.98;9.50;;;6.80;99.90;;;;;;5005013;28;20060;-60
2023/12/07 04:05:24;;;;;;;20.10;8.60;;;6.80;99.90;;;;;;5003951;28;20034;-59
2023/12/07 04:07:49;;;;;;;26.38;9.50;;;6.80;99.90;;;;;;5003478;28;20038;-60
2023/12/07 04:10:15;;;;;;;20.58;9.10;;;6.80;99.90;;;;;;5005805;28;20053;-59
2023/12/07 04:12:41;;;;;;;21.98;8.50;;;6.80;99.90;;;;;;5005083;28;20561;-59
2023/12/07 04:15:07;;;;;;;23.02;8.90;;;6.80;99.90;;;;;;5004724;28;20034;-60
2023/12/07 04:17:32;;;;;;;18.92;8.02;;;6.70;99.90;;;;;;5003644;28;20030;-60
2023/12/07 04:19:58;;;;;;;18.15;8.07;;;6.80;99.90;;;;;;5003461;28;20034;-60
2023/12/07 04:22:23;;;;;;;17.35;8.30;;;6.80;99.90;;;;;;5003539;28;20386;-60
2023/12/07 04:24:49;;;;;;;21.25;8.13;;;6.80;99.90;;;;;;5004909;28;20026;-60
2023/12/07 04:27:15;;;;;;;17.77;8.55;;;6.80;99.90;;;;;;5003320;28;20466;-59
2023/12/07 04:29:41;;;;;;;13.68;8.57;;;6.80;99.90;;;;;;5004608;28;20030;-60
2023/12/07 04:32:07;;;;;;;25.38;9.38;;;6.80;99.90;;;;;;5003348;28;20041;-60
2023/12/07 04:34:32;;;;;;;24.27;8.48;;;6.80;99.90;;;;;;5003486;28;20030;-60
2023/12/07 04:36:58;;;;;;;17.13;8.73;;;6.80;99.90;;;;;;5004027;28;20060;-60
2023/12/07 04:39:27;;;;;;;20.35;8.13;;;6.80;99.90;;;;;;4987159;28;20029;-59
2023/12/07 04:41:52;;;;;;;28.88;9.60;;;6.80;99.90;;;;;;5003284;28;20061;-60
2023/12/07 04:44:19;;;;;;;25.27;9.52;;;6.80;99.90;;;;;;5004592;28;20022;-60
2023/12/07 04:46:44;;;;;;;17.77;8.65;;;6.80;99.90;;;;;;5002964;28;20041;-60
2023/12/07 04:49:10;;;;;;;23.65;8.60;;;6.80;99.90;;;;;;5003275;28;20046;-59
2023/12/07 04:51:36;;;;;;;16.00;8.63;;;6.80;99.90;;;;;;5003321;28;20031;-58
2023/12/07 04:54:01;;;;;;;24.13;9.00;;;6.80;99.90;;;;;;5004279;28;20029;-60
2023/12/07 04:56:27;;;;;;;20.35;9.10;;;6.80;99.90;;;;;;5003222;28;20042;-60
2023/12/07 04:58:53;;;;;;;23.38;10.63;;;6.80;99.90;;;;;;5004421;28;20022;-60
2023/12/07 05:01:21;;;;;;;19.30;9.00;;;6.80;99.90;;;;;;5003128;28;20038;-60
2023/12/07 05:03:47;;;;;;;22.42;10.45;;;6.80;99.90;;;;;;5003052;28;20509;-60
2023/12/07 05:06:12;;;;;;;21.75;8.57;;;6.80;99.90;;;;;;5002943;28;20030;-60
2023/12/07 05:08:39;;;;;;;22.63;9.73;;;6.80;99.90;;;;;;5003056;28;20454;-60
2023/12/07 05:11:06;;;;;;;15.38;9.05;;;6.80;99.90;;;;;;5002954;28;20034;-59
2023/12/07 05:13:33;;;;;;;14.80;9.30;;;6.80;99.90;;;;;;4986782;28;20045;-60
2023/12/07 05:15:59;;;;;;;15.73;8.85;;;6.80;99.90;;;;;;5002729;28;20064;-61
2023/12/07 05:18:25;;;;;;;19.02;8.70;;;6.80;99.90;;;;;;5002712;28;20513;-60
2023/12/07 05:20:50;;;;;;;16.38;8.70;;;6.70;99.90;;;;;;4986430;28;20038;-60
2023/12/07 05:23:17;;;;;;;17.98;8.32;;;6.70;99.90;;;;;;4986550;28;20501;-60
2023/12/07 05:25:43;;;;;;;17.27;9.27;;;6.80;99.90;;;;;;5003756;28;20045;-60
2023/12/07 05:28:08;;;;;;;13.50;8.00;;;6.70;99.90;;;;;;5002639;28;20027;-60
2023/12/07 05:30:36;;;;;;;12.32;8.18;;;6.70;99.90;;;;;;5003710;28;20029;-59
2023/12/07 05:33:02;;;;;;;12.70;7.68;;;6.70;99.90;;;;;;5002741;28;20044;-59
2023/12/07 05:35:27;;;;;;;14.23;7.32;;;6.70;99.90;;;;;;5002630;28;20018;-60
2023/12/07 05:37:53;;;;;;;19.23;8.38;;;6.70;99.90;;;;;;5002613;28;20037;-59
2023/12/07 05:40:19;;;;;;;11.77;7.50;;;6.70;99.90;;;;;;5003867;28;20033;-60
2023/12/07 05:42:45;;;;;;;11.23;7.65;;;6.70;99.90;;;;;;5002595;28;20022;-60
2023/12/07 05:45:11;;;;;;;12.15;7.90;;;6.70;99.90;;;;;;5002559;28;20263;-60
2023/12/07 05:47:36;;;;;;;14.15;8.05;;;6.70;99.90;;;;;;4986642;28;20066;-60
2023/12/07 05:50:03;;;;;;;13.00;7.15;;;6.70;99.90;;;;;;5005841;28;20033;-59
2023/12/07 05:52:29;;;;;;;14.18;8.00;;;6.70;99.90;;;;;;5007179;28;20034;-60
2023/12/07 05:54:54;;;;;;;14.57;7.88;;;6.70;99.90;;;;;;5005888;28;20045;-59
2023/12/07 05:57:20;;;;;;;13.02;7.97;;;6.70;99.90;;;;;;4989684;28;20042;-60
2023/12/07 05:59:46;;;;;;;11.35;8.05;;;6.70;99.90;;;;;;5005941;28;20026;-59
2023/12/07 06:02:11;;;;;;;16.25;8.32;;;6.70;99.90;;;;;;5006847;28;20035;-60
2023/12/07 06:04:37;;;;;;;14.98;8.35;;;6.70;99.90;;;;;;5005603;28;20031;-60
2023/12/07 06:07:03;;;;;;;13.75;7.70;;;6.70;99.90;;;;;;5006815;28;20092;-60
2023/12/07 06:09:29;;;;;;;14.10;7.63;;;6.70;99.90;;;;;;5006819;28;20057;-60
2023/12/07 06:11:55;;;;;;;13.15;8.18;;;6.70;99.90;;;;;;5006834;28;20041;-60
2023/12/07 06:14:22;;;;;;;14.60;7.80;;;6.70;99.90;;;;;;5005359;28;20178;-60
2023/12/07 06:16:48;;;;;;;11.25;7.32;;;6.60;99.90;;;;;;5006641;28;20045;-59
2023/12/07 06:19:14;;;;;;;13.73;7.95;;;6.60;99.90;;;;;;5005305;28;20390;-60
2023/12/07 06:21:39;;;;;;;22.38;9.52;;;6.60;99.90;;;;;;5006703;28;20379;-59
2023/12/07 06:24:05;;;;;;;15.98;7.75;;;6.60;99.90;;;;;;5005525;28;20035;-59
2023/12/07 06:26:32;;;;;;;15.23;8.18;;;6.60;99.90;;;;;;5006270;28;20094;-60
2023/12/07 06:28:58;;;;;;;15.20;7.95;;;6.60;99.90;;;;;;5006447;28;20038;-60
2023/12/07 06:31:24;;;;;;;15.90;8.27;;;6.60;99.90;;;;;;4988837;28;20068;-60
2023/12/07 06:33:49;;;;;;;23.33;8.50;;;6.60;99.90;;;;;;5005049;28;20044;-59
2023/12/07 06:36:22;;;;;;;29.92;9.02;;;6.60;99.90;;;;;;4988864;28;20034;-60
2023/12/07 06:38:47;;;;;;;24.58;9.43;;;6.60;99.90;;;;;;5005301;28;20031;-59
2023/12/07 06:41:14;;;;;;;23.17;8.45;;;6.60;99.90;;;;;;5004968;28;20038;-59
2023/12/07 06:43:40;;;;;;;23.08;9.18;;;6.60;99.90;;;;;;5004916;28;20027;-59
2023/12/07 06:46:05;;;;;;;22.67;9.02;;;6.60;99.90;;;;;;5005900;28;20061;-59
2023/12/07 06:48:31;;;;;;;28.10;9.32;;;6.60;99.90;;;;;;5005673;28;20022;-59
2023/12/07 06:50:57;;;;;;;26.42;9.60;;;6.60;99.90;;;;;;5005303;28;20034;-59
2023/12/07 06:53:22;;;;;;;27.73;9.35;;;6.60;99.90;;;;;;5006232;28;20025;-60
2023/12/07 06:55:48;;;;;;;27.27;9.60;;;6.60;99.90;;;;;;5006128;28;20058;-59
2023/12/07 06:58:13;;;;;;;22.55;9.68;;;6.60;99.90;;;;;;5005690;28;20037;-59
2023/12/07 07:00:39;;;;;;;31.45;9.57;;;6.60;99.90;;;;;;5006003;28;20094;-60
2023/12/07 07:03:06;;;;;;;26.63;9.32;;;6.50;99.90;;;;;;5004144;28;20026;-60
2023/12/07 07:05:31;;;;;;;17.40;9.38;;;6.50;99.90;;;;;;5005149;28;20104;-59
2023/12/07 07:07:57;;;;;;;22.75;8.52;;;6.50;99.90;;;;;;5005722;28;20035;-59
2023/12/07 07:10:23;;;;;;;20.65;9.73;;;6.50;99.90;;;;;;5004568;28;20496;-59
2023/12/07 07:12:48;;;;;;;24.73;9.30;;;6.50;99.90;;;;;;5002755;28;20026;-60
2023/12/07 07:15:14;;;;;;;23.52;9.40;;;6.50;99.90;;;;;;5001905;28;20042;-59
2023/12/07 07:17:39;;;;;;;19.38;9.05;;;6.40;99.90;;;;;;5003279;28;20121;-59
2023/12/07 07:20:06;;;;;;;25.17;10.23;;;6.50;99.90;;;;;;5016936;28;20022;-57
2023/12/07 07:22:31;;;;;;;22.38;9.27;;;6.40;99.90;;;;;;5012096;28;20050;-57
2023/12/07 07:24:57;;;;;;;17.08;9.10;;;6.40;99.90;;;;;;5003881;28;20026;-59
2023/12/07 07:27:23;;;;;;;20.20;9.00;;;6.40;99.90;;;;;;4985857;28;20046;-60
2023/12/07 07:29:48;;;;;;;21.73;9.23;;;6.40;99.90;;;;;;4994986;28;20124;-60
2023/12/07 07:32:14;;;;;;;14.75;9.32;;;6.40;99.90;;;;;;4996021;28;20538;-60
2023/12/07 07:34:39;;;;;;;17.30;8.90;;;6.40;99.90;;;;;;4996033;28;20019;-60
2023/12/07 07:37:06;;;;;;;16.67;9.45;;;6.40;99.90;;;;;;4998609;28;20030;-60
2023/12/07 07:39:32;;;;;;;15.20;8.50;;;6.40;99.90;;;;;;5006601;28;20068;-59
2023/12/07 07:41:58;;;;;;;18.33;9.43;;;6.40;99.90;;;;;;4990327;28;20031;-59
2023/12/07 07:44:23;;;;;;;16.27;9.20;;;6.40;99.90;;;;;;4975323;28;20056;-60
2023/12/07 07:46:49;;;;;;;13.23;9.80;;;6.40;99.90;;;;;;5004581;28;20033;-59
2023/12/07 07:49:15;;;;;;;18.50;9.52;;;6.40;99.90;;;;;;4999998;28;20026;-60
2023/12/07 07:51:40;;;;;;;13.60;9.38;;;6.40;99.90;;;;;;4977774;28;20031;-59
2023/12/07 07:54:06;;;;;;;11.63;9.00;;;6.40;99.90;;;;;;4986898;28;20084;-60
2023/12/07 07:56:31;;;;;;;15.77;9.88;;;6.40;99.90;;;;;;4993864;28;20045;-60
2023/12/07 07:59:00;;;;;;;18.92;10.82;;;6.40;99.90;;;;;;5006884;28;20052;-59
2023/12/07 08:01:28;;;;;;;10.88;8.85;;;6.40;99.90;;;;;;5011319;28;20038;-59
2023/12/07 08:03:57;;;;;;;19.95;9.50;;;6.40;99.90;;;;;;4987977;28;20038;-59
2023/12/07 08:06:22;;;;;;;19.85;9.30;;;6.40;99.90;;;;;;4986462;28;20030;-59
2023/12/07 08:08:49;;;;;;;31.58;10.25;;;6.40;99.90;;;;;;4988833;28;20018;-59
2023/12/07 08:11:15;;;;;;;27.50;10.65;;;6.40;99.90;;;;;;4984537;28;20090;-60
2023/12/07 08:13:40;;;;;;;19.33;10.55;;;6.40;99.90;;;;;;4979357;28;20135;-60
2023/12/07 08:16:09;;;;;;;22.48;10.68;;;6.40;99.90;;;;;;4988641;28;20039;-59
2023/12/07 08:18:35;;;;;;;30.73;11.02;;;6.50;99.90;;;;;;4986727;28;20109;-60
2023/12/07 08:21:01;;;;;;;29.55;10.40;;;6.40;99.90;;;;;;4994118;28;20045;-60
2023/12/07 08:23:27;;;;;;;29.98;11.05;;;6.50;99.90;;;;;;4987787;28;20038;-59
2023/12/07 08:25:52;;;;;;;32.63;11.15;;;6.50;99.90;;;;;;4987316;28;20073;-59
2023/12/07 08:28:18;;;;;;;20.95;10.20;;;6.50;99.90;;;;;;4983355;28;20031;-59
2023/12/07 08:30:44;;;;;;;36.55;11.18;;;6.50;99.90;;;;;;4987128;28;20038;-60
2023/12/07 08:33:09;;;;;;;31.58;11.35;;;6.50;99.90;;;;;;4987212;28;20027;-59
2023/12/07 08:35:35;;;;;;;25.90;10.77;;;6.50;99.90;;;;;;4998151;28;20031;-60
2023/12/07 08:38:00;;;;;;;27.25;10.82;;;6.50;99.90;;;;;;4985610;28;20030;-59
2023/12/07 08:40:26;;;;;;;41.25;11.02;;;6.50;99.90;;;;;;4994082;28;20039;-59
2023/12/07 08:42:54;;;;;;;23.42;9.75;;;6.50;99.90;;;;;;4995681;28;20034;-59
2023/12/07 08:45:19;;;;;;;26.25;10.20;;;6.50;99.90;;;;;;4993501;28;20058;-58
2023/12/07 08:47:45;;;;;;;28.48;11.02;;;6.50;99.90;;;;;;4996045;28;20031;-59
2023/12/07 08:50:11;;;;;;;27.92;11.25;;;6.50;99.90;;;;;;4995075;28;20026;-59
2023/12/07 08:52:36;;;;;;;39.90;11.45;;;6.50;99.90;;;;;;4985806;28;20026;-59
2023/12/07 08:55:02;;;;;;;37.70;11.23;;;6.50;99.90;;;;;;4974382;28;20023;-57
2023/12/07 08:57:28;;;;;;;26.58;10.45;;;6.50;99.90;;;;;;4991922;28;20034;-57
2023/12/07 08:59:54;;;;;;;27.67;10.60;;;6.50;99.90;;;;;;4990398;28;20042;-58
2023/12/07 09:02:20;;;;;;;26.75;10.15;;;6.50;99.90;;;;;;4986436;28;20066;-57
2023/12/07 09:04:45;;;;;;;23.95;11.02;;;6.50;99.90;;;;;;4994570;28;20027;-59
2023/12/07 09:07:15;;;;;;;23.33;10.00;;;6.50;99.90;;;;;;4996566;28;20035;-59
2023/12/07 09:09:46;;;;;;;25.13;9.93;;;6.60;99.90;;;;;;4984792;28;20027;-59
2023/12/07 09:12:12;;;;;;;30.48;10.02;;;6.60;99.90;;;;;;4975499;28;20034;-60
2023/12/07 09:14:38;;;;;;;25.75;10.35;;;6.60;99.90;;;;;;4990996;28;20033;-59
2023/12/07 09:17:06;;;;;;;30.60;11.13;;;6.60;99.90;;;;;;4994122;28;20122;-59
2023/12/07 09:19:32;;;;;;;20.10;10.30;;;6.60;99.90;;;;;;4975858;28;20038;-59
2023/12/07 09:21:58;;;;;;;29.33;10.98;;;6.60;99.90;;;;;;4994674;28;20054;-59
2023/12/07 09:24:24;;;;;;;27.70;11.35;;;6.60;99.90;;;;;;4980099;28;20041;-59
2023/12/07 09:26:50;;;;;;;24.77;11.15;;;6.60;99.90;;;;;;4994026;28;20030;-59
2023/12/07 09:29:15;;;;;;;23.58;11.68;;;6.60;99.90;;;;;;4994087;28;20041;-59
2023/12/07 09:31:41;;;;;;;26.13;11.00;;;6.60;99.90;;;;;;5002356;28;20034;-59
2023/12/07 09:34:08;;;;;;;26.02;11.50;;;6.60;99.90;;;;;;4988781;28;20067;-59
2023/12/07 09:36:33;;;;;;;20.67;11.10;;;6.60;99.80;;;;;;4989382;28;20030;-59
2023/12/07 09:38:59;;;;;;;29.67;11.40;;;6.60;99.80;;;;;;4991319;28;20040;-60
2023/12/07 09:41:25;;;;;;;23.63;12.15;;;6.60;99.80;;;;;;4994637;28;20041;-59
2023/12/07 09:43:51;;;;;;;18.55;11.02;;;6.60;99.80;;;;;;4978847;28;20030;-60
2023/12/07 09:46:17;;;;;;;27.55;12.63;;;6.60;99.80;;;;;;4987298;28;20038;-59
2023/12/07 09:48:43;;;;;;;39.05;12.80;;;6.60;99.80;;;;;;4987269;28;20030;-59
2023/12/07 09:51:08;;;;;;;28.83;12.38;;;6.60;99.80;;;;;;5002668;28;20059;-59
2023/12/07 09:53:34;;;;;;;35.65;12.18;;;6.60;99.80;;;;;;4993704;28;20023;-58
2023/12/07 09:55:59;;;;;;;31.05;11.52;;;6.60;99.80;;;;;;5001135;28;20053;-59
2023/12/07 09:58:25;;;;;;;36.30;12.95;;;6.60;99.70;;;;;;4997893;28;20385;-58
2023/12/07 10:00:50;;;;;;;26.60;12.90;;;6.60;99.70;;;;;;4994937;28;20041;-59
2023/12/07 10:03:21;;;;;;;36.45;13.15;;;6.60;99.70;;;;;;5034350;28;20026;-59
2023/12/07 10:05:59;;;;;;;42.28;14.27;;;6.60;99.60;;;;;;4994316;28;20031;-59
2023/12/07 10:08:32;;;;;;;35.20;14.23;;;6.60;99.60;;;;;;4988287;28;20054;-60
2023/12/07 10:11:05;;;;;;;35.63;13.98;;;6.60;99.50;;;;;;4998375;28;20035;-60
2023/12/07 10:13:33;;;;;;;37.15;14.18;;;6.60;99.50;;;;;;4989077;28;20030;-59
2023/12/07 10:16:17;;;;;;;33.42;12.63;;;6.70;99.70;;;;;;4997180;28;20035;-59
2023/12/07 10:18:43;;;;;;;33.50;13.85;;;6.70;99.30;;;;;;4971846;28;20038;-58
2023/12/07 10:21:11;;;;;;;52.28;15.25;;;6.70;99.30;;;;;;4987683;28;20034;-60
2023/12/07 10:23:37;;;;;;;53.15;15.45;;;6.70;99.20;;;;;;4999233;28;20039;-59
2023/12/07 10:26:04;;;;;;;50.95;13.48;;;6.70;99.20;;;;;;5001454;28;20065;-59
2023/12/07 10:28:30;;;;;;;58.28;16.45;;;6.70;99.20;;;;;;4996428;28;20041;-60
2023/12/07 10:30:56;;;;;;;41.58;16.58;;;6.70;99.10;;;;;;5025803;28;20026;-59
2023/12/07 10:33:22;;;;;;;44.28;14.45;;;6.70;99.00;;;;;;4989782;28;20477;-59
2023/12/07 10:35:50;;;;;;;45.00;14.77;;;6.70;99.00;;;;;;4984235;28;20027;-59
2023/12/07 10:38:16;;;;;;;57.28;14.57;;;6.70;99.00;;;;;;4975372;28;20065;-60
2023/12/07 10:40:41;;;;;;;49.53;14.43;;;6.70;99.10;;;;;;4983566;28;20027;-59
2023/12/07 10:43:07;;;;;;;63.25;16.98;;;6.70;99.30;;;;;;5003322;28;20086;-60
2023/12/07 10:45:34;;;;;;;39.95;14.13;;;6.70;99.00;;;;;;5005879;28;20030;-60
2023/12/07 10:48:06;;;;;;;31.00;13.05;;;6.70;98.90;;;;;;4993832;28;20027;-59
2023/12/07 10:50:34;;;;;;;46.28;14.93;;;6.80;99.00;;;;;;5004181;28;20042;-59
2023/12/07 10:53:08;;;;;;;32.28;13.30;;;6.70;98.90;;;;;;5004124;28;20046;-59
2023/12/07 10:55:37;;;;;;;40.83;14.38;;;6.80;99.00;;;;;;4987018;28;20049;-59
2023/12/07 10:58:02;;;;;;;36.10;14.45;;;6.70;98.90;;;;;;5023775;28;20390;-59
2023/12/07 11:00:28;;;;;;;47.03;14.38;;;6.80;98.90;;;;;;5000339;28;20098;-59
2023/12/07 11:02:54;;;;;;;56.55;14.80;;;6.80;98.90;;;;;;4983014;28;20027;-59
2023/12/07 11:05:20;;;;;;;46.08;14.20;;;6.80;98.90;;;;;;4970920;28;20510;-59
2023/12/07 11:08:09;;;;;;;43.58;13.27;;;6.80;98.80;;;;;;4992273;28;20022;-59
2023/12/07 11:10:48;;;;;;;43.58;13.88;;;6.80;98.80;;;;;;4999067;28;20076;-60
2023/12/07 11:13:20;;;;;;;29.30;12.55;;;6.80;98.70;;;;;;4995273;28;20145;-59
2023/12/07 11:15:45;;;;;;;43.85;13.43;;;6.80;98.70;;;;;;4992708;28;20034;-59
2023/12/07 11:18:13;;;;;;;38.70;12.75;;;6.80;98.70;;;;;;4993912;28;20080;-59
2023/12/07 11:20:44;;;;;;;56.35;13.93;;;6.80;98.80;;;;;;4986436;28;20069;-59
2023/12/07 11:23:10;;;;;;;56.38;13.82;;;6.80;98.80;;;;;;4987458;28;20029;-59
2023/12/07 11:25:36;;;;;;;67.45;14.60;;;6.90;98.90;;;;;;4993352;28;20027;-59
2023/12/07 11:28:05;;;;;;;59.55;15.43;;;6.90;99.20;;;;;;4984667;28;20514;-59
2023/12/07 11:30:32;;;;;;;64.32;14.45;;;6.90;99.40;;;;;;5009777;28;20038;-59
2023/12/07 11:32:59;;;;;;;65.75;15.60;;;6.90;99.10;;;;;;5010598;28;20026;-59
2023/12/07 11:35:24;;;;;;;54.90;13.38;;;7.00;98.90;;;;;;4987896;28;20039;-59
2023/12/07 11:38:04;;;;;;;80.65;15.60;;;7.00;98.90;;;;;;4991401;28;20030;-59
2023/12/07 11:40:31;;;;;;;77.28;14.32;;;7.00;98.80;;;;;;5016398;28;20031;-59
2023/12/07 11:42:58;;;;;;;75.72;15.85;;;7.00;98.80;;;;;;4995822;28;20039;-59
2023/12/07 11:45:57;;;;;;;87.47;16.75;;;7.10;98.90;;;;;;4988570;28;20037;-58
2023/12/07 11:48:22;;;;;;;147.77;22.38;;;7.00;98.80;;;;;;5016471;28;20054;-59
2023/12/07 11:51:04;;;;;;;191.13;24.77;;;7.00;99.00;;;;;;4994652;28;20034;-59
2023/12/07 11:53:34;;;;;;;81.65;14.75;;;7.10;99.00;;;;;;5000706;28;20022;-59
2023/12/07 11:56:01;;;;;;;63.10;14.45;;;7.10;98.90;;;;;;4974171;28;20034;-59
2023/12/07 11:58:27;;;;;;;59.40;14.10;;;7.00;98.80;;;;;;4983710;28;20027;-59
2023/12/07 12:00:56;;;;;;;77.22;14.07;;;7.10;98.70;;;;;;5009080;28;20034;-60
2023/12/07 12:03:22;;;;;;;65.22;14.38;;;7.10;98.70;;;;;;5000396;28;20022;-59
2023/12/07 12:05:48;;;;;;;80.55;14.15;;;7.10;98.60;;;;;;4986137;28;20034;-59
2023/12/07 12:08:14;;;;;;;69.20;14.43;;;7.00;98.60;;;;;;5003976;28;20034;-59
2023/12/07 12:10:40;;;;;;;83.07;14.48;;;7.10;98.60;;;;;;5003507;28;20486;-59
2023/12/07 12:13:06;;;;;;;79.43;14.90;;;7.10;98.60;;;;;;4980712;28;20022;-59
2023/12/07 12:15:31;;;;;;;72.43;14.70;;;7.10;98.60;;;;;;4995050;28;20047;-59
2023/12/07 12:17:57;;;;;;;64.53;13.30;;;7.10;98.50;;;;;;5001565;28;20023;-59
2023/12/07 12:20:24;;;;;;;57.55;13.90;;;7.10;98.50;;;;;;5001452;28;20029;-59
2023/12/07 12:22:53;;;;;;;70.22;14.15;;;7.10;98.60;;;;;;4996081;28;20057;-59
2023/12/07 12:25:25;;;;;;;107.57;16.35;;;7.10;98.60;;;;;;4999448;28;20027;-57
2023/12/07 12:28:03;;;;;;;49.60;13.48;;;7.10;98.60;;;;;;5002691;28;20031;-59
2023/12/07 12:30:29;;;;;;;60.55;12.85;;;7.10;98.50;;;;;;4995231;28;20023;-59
2023/12/07 12:32:55;;;;;;;61.53;12.70;;;7.10;98.50;;;;;;4993776;28;20076;-59
2023/12/07 12:35:21;;;;;;;43.72;12.55;;;7.10;98.50;;;;;;5002290;28;20034;-59
2023/12/07 12:37:48;;;;;;;57.28;12.20;;;7.10;98.50;;;;;;5001508;28;20035;-59